Time;durP1;ratioP1;P1;durP2;ratioP2;P2;SDS_P1;SDS_P2;PMS_P1;PMS_P2;Temp;Humidity;BMP_temperature;BMP_pressure;BME280_temperature;BME280_humidity;BME280_pressure;Samples;Min_cycle;Max_cycle;Signal;HPM_P1;HPM_P2
2022/03/26 00:00:37;;;;;;;;;;;;;;;11.24;41.08;101972.72;6110766;23;6861;-77
2022/03/26 00:03:04;;;;;;;;;;;;;;;11.19;41.24;101976.63;6109935;23;7125;-77
2022/03/26 00:05:29;;;;;;;;;;;;;;;11.13;40.92;101972.72;6110618;23;7800;-77
2022/03/26 00:07:55;;;;;;;;;;;;;;;11.09;41.43;101971.63;6111480;23;6886;-77
2022/03/26 00:10:21;;;;;;;;;;;;;;;11.04;41.10;101973.84;6108661;23;8060;-77
2022/03/26 00:12:46;;;;;;;;;;;;;;;11.01;41.33;101976.22;6107416;23;7171;-76
2022/03/26 00:15:13;;;;;;;;;;;;;;;10.98;41.93;101969.19;6083762;23;7034;-77
2022/03/26 00:17:39;;;;;;;;;;;;;;;10.96;42.45;101981.00;6088285;23;6855;-77
2022/03/26 00:20:06;;;;;;;;;;;;;;;10.93;42.13;101974.75;6109602;23;7231;-76
2022/03/26 00:22:33;;;;;;;;;;;;;;;10.89;41.96;101975.34;6085729;23;7145;-77
2022/03/26 00:24:59;;;;;;;;;;;;;;;10.87;41.68;101979.47;6135828;23;6779;-77
2022/03/26 00:27:25;;;;;;;;;;;;;;;10.80;42.15;101973.91;6108160;23;6770;-77
2022/03/26 00:29:50;;;;;;;;;;;;;;;10.77;42.18;101973.69;6110495;23;7822;-77
2022/03/26 00:32:16;;;;;;;;;;;;;;;10.75;42.50;101984.59;6111455;23;6910;-77
2022/03/26 00:34:42;;;;;;;;;;;;;;;10.72;42.62;101974.09;6112931;23;7616;-77
2022/03/26 00:37:08;;;;;;;;;;;;;;;10.69;42.43;101975.66;6112208;23;6863;-77
2022/03/26 00:39:34;;;;;;;;;;;;;;;10.66;42.41;101967.75;6113641;23;6782;-77
2022/03/26 00:41:59;;;;;;;;;;;;;;;10.65;42.29;101977.91;6109720;23;7796;-77
2022/03/26 00:44:25;;;;;;;;;;;;;;;10.62;42.78;101975.13;6108966;23;6943;-77
2022/03/26 00:46:51;;;;;;;;;;;;;;;10.58;42.52;101979.13;6111091;23;6889;-76
2022/03/26 00:49:19;;;;;;;;;;;;;;;10.55;42.75;101974.66;6110393;23;6983;-76
2022/03/26 00:51:46;;;;;;;;;;;;;;;10.52;43.45;101982.13;6108094;23;6990;-77
2022/03/26 00:54:12;;;;;;;;;;;;;;;10.47;43.59;101973.19;6109346;23;6990;-76
2022/03/26 00:56:40;;;;;;;;;;;;;;;10.44;43.14;101978.09;6112006;23;6868;-77
2022/03/26 00:59:07;;;;;;;;;;;;;;;10.40;43.59;101976.94;6111189;23;6872;-77
2022/03/26 01:01:34;;;;;;;;;;;;;;;10.37;43.15;101976.72;6108696;23;6782;-77
2022/03/26 01:04:01;;;;;;;;;;;;;;;10.34;43.04;101966.28;6111033;23;6936;-76
2022/03/26 01:06:27;;;;;;;;;;;;;;;10.33;44.14;101968.69;6109668;23;6866;-77
2022/03/26 01:08:54;;;;;;;;;;;;;;;10.36;43.57;101968.91;6060119;23;7199;-77
2022/03/26 01:11:21;;;;;;;;;;;;;;;10.37;44.20;101966.47;6133287;23;6953;-77
2022/03/26 01:13:48;;;;;;;;;;;;;;;10.40;43.54;101968.38;6109351;23;7130;-77
2022/03/26 01:16:15;;;;;;;;;;;;;;;10.37;44.40;101953.66;6109169;23;6779;-75
2022/03/26 01:18:42;;;;;;;;;;;;;;;10.38;44.77;101962.22;6109776;23;6774;-75
2022/03/26 01:21:08;;;;;;;;;;;;;;;10.35;43.66;101955.22;6108764;23;8311;-75
2022/03/26 01:23:35;;;;;;;;;;;;;;;10.34;44.27;101963.72;6109006;23;6978;-75
2022/03/26 01:26:03;;;;;;;;;;;;;;;10.31;44.16;101960.03;6107069;23;6775;-75
2022/03/26 01:28:30;;;;;;;;;;;;;;;10.26;43.77;101949.44;6109911;23;6969;-75
2022/03/26 01:30:59;;;;;;;;;;;;;;;10.21;44.17;101948.19;6108883;23;6775;-75
2022/03/26 01:33:25;;;;;;;;;;;;;;;10.16;44.57;101937.59;6109793;23;7191;-75
2022/03/26 01:35:50;;;;;;;;;;;;;;;10.12;44.32;101938.16;6085194;23;8455;-75
2022/03/26 01:38:16;;;;;;;;;;;;;;;10.10;44.61;101940.59;6109482;23;6930;-75
2022/03/26 01:40:42;;;;;;;;;;;;;;;10.05;44.53;101941.94;6108609;23;6770;-75
2022/03/26 01:43:08;;;;;;;;;;;;;;;10.02;44.99;101940.81;6133179;23;6854;-75
2022/03/26 01:45:34;;;;;;;;;;;;;;;9.98;44.54;101942.25;6110768;23;6948;-75
2022/03/26 01:48:01;;;;;;;;;;;;;;;9.94;44.34;101947.88;6110678;23;6894;-75
2022/03/26 01:50:29;;;;;;;;;;;;;;;9.90;44.38;101944.22;6110460;23;6796;-75
2022/03/26 01:52:56;;;;;;;;;;;;;;;9.85;44.13;101942.97;6108139;23;6947;-75
2022/03/26 01:55:26;;;;;;;;;;;;;;;9.79;44.75;101940.84;6086205;23;7150;-75
2022/03/26 01:57:53;;;;;;;;;;;;;;;9.73;44.38;101942.94;6132707;23;6888;-75
2022/03/26 02:00:19;;;;;;;;;;;;;;;9.67;45.22;101945.03;6108991;23;6782;-75
2022/03/26 02:02:45;;;;;;;;;;;;;;;9.64;45.68;101939.66;6109590;23;6933;-75
2022/03/26 02:05:12;;;;;;;;;;;;;;;9.61;45.38;101934.31;6109915;23;6989;-75
2022/03/26 02:07:40;;;;;;;;;;;;;;;9.57;45.31;101934.09;6108924;23;6779;-75
2022/03/26 02:10:09;;;;;;;;;;;;;;;9.55;45.00;101932.19;6109739;23;6945;-75
2022/03/26 02:12:35;;;;;;;;;;;;;;;9.54;45.83;101932.97;6108751;23;6978;-75
2022/03/26 02:15:01;;;;;;;;;;;;;;;9.54;45.94;101935.53;6108540;23;6925;-75
2022/03/26 02:17:26;;;;;;;;;;;;;;;9.54;45.40;101928.72;6133544;23;6853;-75
2022/03/26 02:19:53;;;;;;;;;;;;;;;9.53;45.28;101929.50;6113490;23;6770;-75
2022/03/26 02:22:25;;;;;;;;;;;;;;;9.52;46.07;101934.53;6084858;23;6964;-75
2022/03/26 02:24:52;;;;;;;;;;;;;;;9.49;46.33;101927.50;6109376;23;6791;-75
2022/03/26 02:27:18;;;;;;;;;;;;;;;9.50;46.06;101934.41;6107390;23;6954;-75
2022/03/26 02:29:44;;;;;;;;;;;;;;;9.49;46.78;101942.84;6109079;23;6858;-75
2022/03/26 02:32:09;;;;;;;;;;;;;;;9.46;46.14;101934.91;6107698;23;6854;-75
2022/03/26 02:34:35;;;;;;;;;;;;;;;9.43;46.44;101933.03;6110633;23;6770;-75
2022/03/26 02:37:01;;;;;;;;;;;;;;;9.41;46.22;101933.69;6085780;23;7074;-75
2022/03/26 02:39:27;;;;;;;;;;;;;;;9.38;46.15;101941.13;6108836;23;7028;-75
2022/03/26 02:41:55;;;;;;;;;;;;;;;9.33;46.02;101945.91;6109588;23;6782;-75
2022/03/26 02:44:21;;;;;;;;;;;;;;;9.29;46.43;101952.44;6112622;23;7059;-75
2022/03/26 02:46:47;;;;;;;;;;;;;;;9.25;46.44;101947.84;6112921;23;6787;-75
2022/03/26 02:49:14;;;;;;;;;;;;;;;9.19;46.52;101952.50;6135541;23;6782;-75
2022/03/26 02:51:42;;;;;;;;;;;;;;;9.16;46.47;101953.13;6110695;23;6783;-75
2022/03/26 02:54:18;;;;;;;;;;;;;;;9.12;46.66;101955.34;6111889;23;6863;-75
2022/03/26 02:56:53;;;;;;;;;;;;;;;9.06;47.00;101952.28;6089358;23;6919;-75
2022/03/26 02:59:19;;;;;;;;;;;;;;;9.02;47.31;101949.50;6112554;23;7155;-75
2022/03/26 03:01:48;;;;;;;;;;;;;;;9.01;47.39;101946.78;6113255;23;6890;-75
2022/03/26 03:04:14;;;;;;;;;;;;;;;9.01;47.77;101947.72;6116882;23;6779;-75
2022/03/26 03:06:40;;;;;;;;;;;;;;;9.00;46.82;101948.47;6115854;23;6982;-75
2022/03/26 03:09:07;;;;;;;;;;;;;;;8.99;46.51;101946.69;6116702;23;6775;-75
2022/03/26 03:11:35;;;;;;;;;;;;;;;8.96;47.44;101949.00;6090665;23;6988;-75
2022/03/26 03:14:03;;;;;;;;;;;;;;;8.94;47.13;101950.53;6092081;23;7198;-75
2022/03/26 03:16:29;;;;;;;;;;;;;;;8.94;48.10;101947.97;6091947;23;6787;-75
2022/03/26 03:18:56;;;;;;;;;;;;;;;8.95;47.72;101959.13;6117199;23;7196;-75
2022/03/26 03:21:22;;;;;;;;;;;;;;;8.93;46.65;101960.63;6115517;23;8018;-75
2022/03/26 03:23:47;;;;;;;;;;;;;;;8.90;47.02;101963.88;6092153;23;6948;-76
2022/03/26 03:26:15;;;;;;;;;;;;;;;8.89;46.90;101962.97;6138495;23;7259;-75
2022/03/26 03:28:41;;;;;;;;;;;;;;;8.85;47.28;101957.47;6115402;23;6810;-75
2022/03/26 03:31:07;;;;;;;;;;;;;;;8.82;47.09;101970.91;6114430;23;7998;-75
2022/03/26 03:33:33;;;;;;;;;;;;;;;8.75;47.40;101966.97;6116215;23;6770;-75
2022/03/26 03:35:59;;;;;;;;;;;;;;;8.72;47.50;101961.63;6117205;23;6818;-75
2022/03/26 03:38:25;;;;;;;;;;;;;;;8.69;47.83;101963.94;6115254;23;7219;-75
2022/03/26 03:40:51;;;;;;;;;;;;;;;8.69;47.21;101969.03;6114764;23;6866;-75
2022/03/26 03:43:17;;;;;;;;;;;;;;;8.69;47.79;101958.81;6088652;23;6951;-75
2022/03/26 03:45:43;;;;;;;;;;;;;;;8.70;47.66;101960.59;6114809;23;6786;-75
2022/03/26 03:48:09;;;;;;;;;;;;;;;8.71;48.77;101956.38;6114727;23;6782;-76
2022/03/26 03:50:35;;;;;;;;;;;;;;;8.69;48.19;101961.38;6115148;23;6794;-76
2022/03/26 03:53:02;;;;;;;;;;;;;;;8.66;47.22;101968.78;6113337;23;6834;-76
2022/03/26 03:55:30;;;;;;;;;;;;;;;8.64;48.05;101966.84;6115220;23;6939;-76
2022/03/26 03:57:56;;;;;;;;;;;;;;;8.64;48.87;101964.31;6112679;23;6858;-76
2022/03/26 04:00:22;;;;;;;;;;;;;;;8.66;48.52;101961.09;6114005;23;6897;-76
2022/03/26 04:02:48;;;;;;;;;;;;;;;8.68;48.48;101964.69;6113585;23;6773;-76
2022/03/26 04:05:13;;;;;;;;;;;;;;;8.66;48.77;101948.31;6112645;23;7253;-75
2022/03/26 04:07:44;;;;;;;;;;;;;;;8.66;48.89;101957.69;6112034;23;6782;-75
2022/03/26 04:10:10;;;;;;;;;;;;;;;8.65;49.32;101961.00;6111066;23;6969;-75
2022/03/26 04:12:38;;;;;;;;;;;;;;;8.64;48.14;101969.41;6109358;23;6779;-75
2022/03/26 04:15:08;;;;;;;;;;;;;;;8.61;47.97;101965.84;6111238;23;8470;-75
2022/03/26 04:17:34;;;;;;;;;;;;;;;8.59;48.41;101971.59;6088785;23;6963;-75
2022/03/26 04:20:01;;;;;;;;;;;;;;;8.57;48.24;101980.81;6110878;23;6846;-75
2022/03/26 04:22:27;;;;;;;;;;;;;;;8.52;48.99;101970.22;6084919;23;6959;-75
2022/03/26 04:24:52;;;;;;;;;;;;;;;8.48;48.34;101979.25;6086073;23;7154;-75
2022/03/26 04:27:18;;;;;;;;;;;;;;;8.44;48.53;101982.34;6110798;23;6790;-75
2022/03/26 04:29:44;;;;;;;;;;;;;;;8.40;48.93;101980.31;6108363;23;7159;-75
2022/03/26 04:32:10;;;;;;;;;;;;;;;8.39;49.42;101972.50;6107589;23;6782;-75
2022/03/26 04:34:37;;;;;;;;;;;;;;;8.36;48.75;101974.81;6134686;23;6954;-75
2022/03/26 04:37:05;;;;;;;;;;;;;;;8.32;48.02;101981.34;6111567;23;6950;-75
2022/03/26 04:39:33;;;;;;;;;;;;;;;8.29;48.82;101976.88;6112027;23;6779;-75
2022/03/26 04:41:58;;;;;;;;;;;;;;;8.26;49.12;101976.63;6132869;23;8028;-75
2022/03/26 04:44:24;;;;;;;;;;;;;;;8.23;48.49;101981.44;6111319;23;6858;-75
2022/03/26 04:46:50;;;;;;;;;;;;;;;8.21;49.07;101975.34;6110920;23;6775;-75
2022/03/26 04:49:16;;;;;;;;;;;;;;;8.20;49.67;101982.09;6086445;23;7132;-75
2022/03/26 04:51:42;;;;;;;;;;;;;;;8.16;48.61;101980.06;6085904;23;6759;-75
2022/03/26 04:54:08;;;;;;;;;;;;;;;8.10;48.34;101974.44;6110387;23;6790;-75
2022/03/26 04:56:33;;;;;;;;;;;;;;;8.06;49.20;101982.63;6108801;23;6916;-75
2022/03/26 04:58:59;;;;;;;;;;;;;;;8.00;48.81;101977.88;6112496;23;6771;-75
2022/03/26 05:01:25;;;;;;;;;;;;;;;7.94;48.99;101979.03;6108673;23;6814;-75
2022/03/26 05:03:51;;;;;;;;;;;;;;;7.89;48.71;101988.88;6110817;23;7219;-75
2022/03/26 05:06:18;;;;;;;;;;;;;;;7.83;49.03;101983.22;6085787;23;6771;-75
2022/03/26 05:08:43;;;;;;;;;;;;;;;7.77;49.07;101988.72;6110590;23;7058;-75
2022/03/26 05:11:09;;;;;;;;;;;;;;;7.72;49.18;101990.88;6080366;23;7005;-75
2022/03/26 05:13:35;;;;;;;;;;;;;;;7.68;49.59;101990.47;6108875;23;7934;-75
2022/03/26 05:16:02;;;;;;;;;;;;;;;7.62;49.15;101989.19;6108904;23;7043;-76
2022/03/26 05:18:28;;;;;;;;;;;;;;;7.57;49.71;101990.47;6112847;23;7101;-75
2022/03/26 05:20:56;;;;;;;;;;;;;;;7.55;50.27;101984.34;6088252;23;6771;-75
2022/03/26 05:23:24;;;;;;;;;;;;;;;7.56;49.79;101988.69;6113505;23;6946;-75
2022/03/26 05:25:49;;;;;;;;;;;;;;;7.59;50.77;101988.06;6136259;23;6778;-75
2022/03/26 05:28:15;;;;;;;;;;;;;;;7.60;50.51;101984.72;6111028;23;6767;-75
2022/03/26 05:30:42;;;;;;;;;;;;;;;7.63;50.45;101993.56;6109435;23;7015;-75
2022/03/26 05:33:08;;;;;;;;;;;;;;;7.68;50.89;101998.13;6110360;23;6787;-75
2022/03/26 05:35:34;;;;;;;;;;;;;;;7.70;50.07;101992.41;6112530;23;6846;-75
2022/03/26 05:38:00;;;;;;;;;;;;;;;7.72;50.08;101990.88;6112246;23;6889;-75
2022/03/26 05:40:26;;;;;;;;;;;;;;;7.75;50.04;102001.34;6088831;23;6858;-75
2022/03/26 05:42:53;;;;;;;;;;;;;;;7.75;50.02;102003.00;6111066;23;7009;-75
2022/03/26 05:45:19;;;;;;;;;;;;;;;7.73;50.76;102002.00;6112351;23;6978;-75
2022/03/26 05:47:49;;;;;;;;;;;;;;;7.71;50.49;101998.38;6113734;23;6866;-75
2022/03/26 05:50:15;;;;;;;;;;;;;;;7.72;50.39;102006.19;6111025;23;6786;-75
2022/03/26 05:52:41;;;;;;;;;;;;;;;7.73;50.67;102004.53;6085500;23;7555;-75
2022/03/26 05:55:07;;;;;;;;;;;;;;;7.76;50.37;102009.91;6107511;23;7148;-75
2022/03/26 05:57:33;;;;;;;;;;;;;;;7.77;51.11;102010.03;6112496;23;6953;-75
2022/03/26 05:59:59;;;;;;;;;;;;;;;7.79;50.41;102012.69;6087838;23;6851;-75
2022/03/26 06:02:25;;;;;;;;;;;;;;;7.85;50.96;102015.78;6111320;23;6782;-75
2022/03/26 06:04:51;;;;;;;;;;;;;;;7.90;51.26;102022.16;6135511;23;7379;-75
2022/03/26 06:07:17;;;;;;;;;;;;;;;7.96;51.29;102021.78;6111892;23;6928;-76
2022/03/26 06:09:42;;;;;;;;;;;;;;;7.99;50.79;102026.25;6112667;23;7079;-76
2022/03/26 06:12:09;;;;;;;;;;;;;;;8.04;50.62;102031.00;6113138;23;6977;-76
2022/03/26 06:14:35;;;;;;;;;;;;;;;8.11;50.84;102036.63;6113375;23;6790;-76
2022/03/26 06:17:00;;;;;;;;;;;;;;;8.15;50.80;102028.44;6086281;23;6786;-76
2022/03/26 06:19:26;;;;;;;;;;;;;;;8.21;50.62;102034.06;6109981;23;6861;-76
2022/03/26 06:21:53;;;;;;;;;;;;;;;8.29;51.14;102037.25;6112752;23;7848;-76
2022/03/26 06:24:20;;;;;;;;;;;;;;;8.36;50.60;102033.59;6087279;23;6881;-76
2022/03/26 06:26:48;;;;;;;;;;;;;;;8.41;50.26;102040.88;6109298;23;7002;-75
2022/03/26 06:29:15;;;;;;;;;;;;;;;8.48;50.95;102040.59;6114366;23;7082;-76
2022/03/26 06:31:42;;;;;;;;;;;;;;;8.57;50.87;102040.50;6114217;23;6787;-76
2022/03/26 06:34:08;;;;;;;;;;;;;;;8.66;51.40;102045.47;6111101;23;6952;-75
2022/03/26 06:36:34;;;;;;;;;;;;;;;8.72;50.69;102043.41;6111346;23;7023;-75
2022/03/26 06:39:02;;;;;;;;;;;;;;;8.81;50.42;102042.38;6111319;23;6840;-76
2022/03/26 06:41:27;;;;;;;;;;;;;;;8.90;50.64;102050.81;6132521;23;8462;-76
2022/03/26 06:43:53;;;;;;;;;;;;;;;9.01;51.33;102046.53;6113368;23;6837;-76
2022/03/26 06:46:19;;;;;;;;;;;;;;;9.10;51.10;102047.28;6114514;23;7281;-76
2022/03/26 06:48:44;;;;;;;;;;;;;;;9.21;51.44;102053.28;6112651;23;6984;-76
2022/03/26 06:51:10;;;;;;;;;;;;;;;9.33;51.13;102057.56;6111483;23;8768;-76
2022/03/26 06:53:36;;;;;;;;;;;;;;;9.44;50.15;102055.09;6113839;23;7816;-76
2022/03/26 06:56:06;;;;;;;;;;;;;;;9.57;50.01;102059.53;6088951;23;6913;-76
2022/03/26 06:58:34;;;;;;;;;;;;;;;9.68;50.51;102056.91;6064253;23;6969;-76
2022/03/26 07:01:00;;;;;;;;;;;;;;;9.80;50.93;102050.19;6113204;23;7115;-76
2022/03/26 07:03:26;;;;;;;;;;;;;;;9.94;50.77;102058.03;6112464;23;6977;-76
2022/03/26 07:05:52;;;;;;;;;;;;;;;10.06;50.71;102064.13;6112918;23;6877;-76
2022/03/26 07:08:18;;;;;;;;;;;;;;;10.18;50.42;102060.69;6113770;23;6774;-76
2022/03/26 07:10:46;;;;;;;;;;;;;;;10.31;50.67;102067.66;6114999;23;6775;-76
2022/03/26 07:13:14;;;;;;;;;;;;;;;10.40;50.63;102069.22;6110406;23;6774;-76
2022/03/26 07:15:41;;;;;;;;;;;;;;;10.53;50.59;102073.66;6111441;23;7322;-76
2022/03/26 07:18:06;;;;;;;;;;;;;;;10.63;50.23;102075.25;6138103;23;8788;-76
2022/03/26 07:20:32;;;;;;;;;;;;;;;10.74;50.05;102076.03;6112516;23;7136;-76
2022/03/26 07:22:58;;;;;;;;;;;;;;;10.86;50.37;102073.47;6112571;23;6774;-76
2022/03/26 07:25:23;;;;;;;;;;;;;;;10.98;50.37;102083.75;6112141;23;6861;-76
2022/03/26 07:27:49;;;;;;;;;;;;;;;11.10;49.98;102076.94;6111843;23;6942;-76
2022/03/26 07:30:15;;;;;;;;;;;;;;;11.25;50.37;102083.94;6111202;23;6806;-76
2022/03/26 07:32:40;;;;;;;;;;;;;;;11.39;50.05;102078.16;6111711;23;6874;-76
2022/03/26 07:35:06;;;;;;;;;;;;;;;11.55;50.26;102075.78;6113639;23;6771;-76
2022/03/26 07:37:32;;;;;;;;;;;;;;;11.69;49.66;102076.75;6110753;23;6943;-76
2022/03/26 07:39:59;;;;;;;;;;;;;;;11.84;49.47;102079.50;6107497;23;6766;-76
2022/03/26 07:42:26;;;;;;;;;;;;;;;11.99;49.08;102087.38;6112370;23;6968;-76
2022/03/26 07:44:52;;;;;;;;;;;;;;;12.12;48.71;102081.44;6112956;23;6875;-76
2022/03/26 07:47:18;;;;;;;;;;;;;;;12.24;48.05;102086.53;6135121;23;6806;-75
2022/03/26 07:49:44;;;;;;;;;;;;;;;12.37;48.01;102084.00;6112485;23;6771;-76
2022/03/26 07:52:10;;;;;;;;;;;;;;;12.48;48.09;102082.16;6085713;23;6834;-76
2022/03/26 07:54:36;;;;;;;;;;;;;;;12.59;48.01;102083.78;6132458;23;6771;-76
2022/03/26 07:57:02;;;;;;;;;;;;;;;12.73;47.26;102086.34;6111488;23;6779;-76
2022/03/26 07:59:27;;;;;;;;;;;;;;;12.83;47.30;102095.59;6112668;23;6929;-76
2022/03/26 08:01:53;;;;;;;;;;;;;;;12.95;47.04;102100.66;6086444;23;7138;-76
2022/03/26 08:04:19;;;;;;;;;;;;;;;13.05;47.49;102103.91;6113411;23;6775;-76
2022/03/26 08:06:44;;;;;;;;;;;;;;;13.14;46.62;102103.63;6088412;23;6899;-76
2022/03/26 08:09:10;;;;;;;;;;;;;;;13.24;47.08;102104.22;6106537;23;6926;-76
2022/03/26 08:11:36;;;;;;;;;;;;;;;13.31;46.48;102102.16;6086500;23;6767;-76
2022/03/26 08:14:02;;;;;;;;;;;;;;;13.40;46.62;102101.81;6111414;23;6763;-76
2022/03/26 08:16:27;;;;;;;;;;;;;;;13.50;46.81;102102.44;6112640;23;6941;-76
2022/03/26 08:18:53;;;;;;;;;;;;;;;13.58;46.16;102103.81;6113528;23;6819;-76
2022/03/26 08:21:20;;;;;;;;;;;;;;;13.67;46.83;102103.53;6113525;23;6767;-76
2022/03/26 08:23:46;;;;;;;;;;;;;;;13.78;45.68;102101.59;6112452;23;7843;-76
2022/03/26 08:26:26;;;;;;;;;;;;;;;13.88;45.75;102103.94;6088996;23;6983;-76
2022/03/26 08:28:59;;;;;;;;;;;;;;;13.98;46.51;102101.13;6113014;23;6787;-76
2022/03/26 08:31:29;;;;;;;;;;;;;;;14.07;45.36;102102.50;6112823;23;7306;-76
2022/03/26 08:33:55;;;;;;;;;;;;;;;14.17;45.67;102099.69;6112300;23;8639;-76
2022/03/26 08:36:22;;;;;;;;;;;;;;;14.30;46.34;102103.88;6112960;23;7299;-76
2022/03/26 08:38:49;;;;;;;;;;;;;;;14.40;46.34;102108.78;6112628;23;6938;-76
2022/03/26 08:41:19;;;;;;;;;;;;;;;14.49;45.65;102107.56;6113995;23;7005;-76
2022/03/26 08:43:48;;;;;;;;;;;;;;;14.57;45.32;102107.22;6114247;23;6787;-76
2022/03/26 08:46:13;;;;;;;;;;;;;;;14.68;45.09;102113.00;6111698;23;6850;-76
2022/03/26 08:48:39;;;;;;;;;;;;;;;14.74;44.93;102102.19;6112788;23;6847;-76
2022/03/26 08:51:05;;;;;;;;;;;;;;;14.85;44.98;102102.81;6114544;23;6934;-76
2022/03/26 08:53:31;;;;;;;;;;;;;;;14.95;45.34;102105.13;6115220;23;6835;-76
2022/03/26 08:55:57;;;;;;;;;;;;;;;15.06;45.39;102095.38;6114958;23;6873;-76
2022/03/26 08:58:23;;;;;;;;;;;;;;;15.18;45.14;102096.91;6115506;23;6945;-76
2022/03/26 09:00:51;;;;;;;;;;;;;;;15.28;44.19;102094.03;6115164;23;6967;-76
2022/03/26 09:03:21;;;;;;;;;;;;;;;15.38;43.71;102093.75;6111881;23;7047;-76
2022/03/26 09:05:48;;;;;;;;;;;;;;;15.49;44.13;102094.31;6115281;23;6978;-76
2022/03/26 09:08:14;;;;;;;;;;;;;;;15.62;43.29;102095.00;6115761;23;6767;-76
2022/03/26 09:10:39;;;;;;;;;;;;;;;15.74;44.16;102097.34;6114799;23;6961;-76
2022/03/26 09:13:05;;;;;;;;;;;;;;;15.86;43.23;102095.44;6114932;23;6779;-76
2022/03/26 09:15:31;;;;;;;;;;;;;;;15.98;42.89;102091.75;6116454;23;6917;-76
2022/03/26 09:17:59;;;;;;;;;;;;;;;16.09;43.04;102094.09;6139208;23;7168;-76
2022/03/26 09:20:26;;;;;;;;;;;;;;;16.22;42.49;102108.56;6113511;23;6787;-76
2022/03/26 09:22:52;;;;;;;;;;;;;;;16.35;42.79;102101.44;6138360;23;8016;-76
2022/03/26 09:25:20;;;;;;;;;;;;;;;16.45;42.18;102097.59;6112820;23;6870;-76
2022/03/26 09:27:47;;;;;;;;;;;;;;;16.57;42.15;102100.84;6115514;23;6890;-76
2022/03/26 09:30:15;;;;;;;;;;;;;;;16.69;42.32;102095.34;6090316;23;8800;-76
2022/03/26 09:32:42;;;;;;;;;;;;;;;16.80;41.92;102096.81;6114916;23;6846;-76
2022/03/26 09:35:08;;;;;;;;;;;;;;;16.91;41.56;102089.53;6090366;23;7276;-76
2022/03/26 09:37:34;;;;;;;;;;;;;;;17.01;41.79;102098.69;6116169;23;6858;-76
2022/03/26 09:40:02;;;;;;;;;;;;;;;17.09;41.63;102093.88;6114331;23;6799;-76
2022/03/26 09:42:29;;;;;;;;;;;;;;;17.19;41.73;102096.09;6112743;23;7342;-76
2022/03/26 09:44:57;;;;;;;;;;;;;;;17.31;41.16;102094.91;6115504;23;6791;-76
2022/03/26 09:47:22;;;;;;;;;;;;;;;17.44;40.53;102099.84;6115436;23;6851;-76
2022/03/26 09:49:48;;;;;;;;;;;;;;;17.58;40.38;102089.22;6116431;23;6935;-76
2022/03/26 09:52:14;;;;;;;;;;;;;;;17.69;39.99;102085.41;6088335;23;6767;-76
2022/03/26 09:54:40;;;;;;;;;;;;;;;17.77;39.80;102089.25;6112775;23;6771;-76
2022/03/26 09:57:07;;;;;;;;;;;;;;;17.89;40.00;102081.16;6115646;23;6770;-76
2022/03/26 09:59:33;;;;;;;;;;;;;;;18.00;39.46;102089.38;6114794;23;6859;-76
2022/03/26 10:01:58;;;;;;;;;;;;;;;18.10;39.62;102084.63;6114619;23;7205;-76
2022/03/26 10:04:27;;;;;;;;;;;;;;;18.21;39.41;102087.72;6114583;23;6849;-76
2022/03/26 10:06:57;;;;;;;;;;;;;;;18.33;39.46;102088.22;6115542;23;7151;-76
2022/03/26 10:09:42;;;;;;;;;;;;;;;18.45;39.55;102095.66;6087425;23;6875;-76
2022/03/26 10:12:09;;;;;;;;;;;;;;;18.54;39.58;102089.97;6113795;23;7819;-76
2022/03/26 10:14:53;;;;;;;;;;;;;;;18.64;39.33;102084.34;6114593;23;6973;-76
2022/03/26 10:17:32;;;;;;;;;;;;;;;18.73;38.30;102094.22;6114891;23;6964;-75
2022/03/26 10:20:01;;;;;;;;;;;;;;;18.82;38.32;102088.50;6116491;23;6774;-76
2022/03/26 10:22:50;;;;;;;;;;;;;;;18.93;37.79;102087.25;6138362;23;6973;-76
2022/03/26 10:25:20;;;;;;;;;;;;;;;19.11;38.53;102083.63;6138093;23;6779;-76
2022/03/26 10:27:57;;;;;;;;;;;;;;;19.48;38.05;102092.00;6112590;23;6771;-76
2022/03/26 10:33:28;;;;;;;;;;;;;;;21.43;36.04;102087.31;6113939;23;7046;-76
2022/03/26 10:36:03;;;;;;;;;;;;;;;22.47;34.62;102071.00;6115131;23;6801;-76
2022/03/26 10:38:34;;;;;;;;;;;;;;;23.43;33.94;102067.19;6113212;23;6940;-76
2022/03/26 10:41:05;;;;;;;;;;;;;;;24.30;32.92;102063.63;6089425;23;7178;-76
2022/03/26 10:43:30;;;;;;;;;;;;;;;24.97;31.87;102062.06;6089788;23;6935;-76
2022/03/26 10:46:00;;;;;;;;;;;;;;;25.62;31.44;102048.91;6114570;23;7051;-76
2022/03/26 10:48:33;;;;;;;;;;;;;;;26.26;30.03;102054.81;6115739;23;6887;-76
2022/03/26 10:51:13;;;;;;;;;;;;;;;26.78;29.37;102050.84;6115543;23;6783;-76
2022/03/26 10:53:43;;;;;;;;;;;;;;;27.25;28.16;102045.00;6112946;23;6986;-76
2022/03/26 10:56:13;;;;;;;;;;;;;;;27.67;27.32;102039.03;6112722;23;6846;-76
2022/03/26 10:58:42;;;;;;;;;;;;;;;27.93;26.99;102032.94;6089200;23;6963;-76
2022/03/26 11:01:08;;;;;;;;;;;;;;;28.17;26.87;102044.34;6114053;23;8321;-76
2022/03/26 11:03:36;;;;;;;;;;;;;;;28.28;25.97;102037.34;6113483;23;6771;-76
2022/03/26 11:06:08;;;;;;;;;;;;;;;28.30;26.17;102038.25;6113192;23;6938;-77
2022/03/26 11:08:36;;;;;;;;;;;;;;;28.50;25.60;102034.72;6112890;23;6867;-77
2022/03/26 11:11:08;;;;;;;;;;;;;;;28.83;25.48;102035.56;6113270;23;6794;-77
2022/03/26 11:13:48;;;;;;;;;;;;;;;29.01;24.56;102036.38;6135996;23;7178;-77
2022/03/26 11:16:31;;;;;;;;;;;;;;;29.22;24.43;102031.00;6115002;23;6968;-77
2022/03/26 11:19:37;;;;;;;;;;;;;;;29.52;23.25;102029.13;6113864;23;6786;-76
2022/03/26 11:22:34;;;;;;;;;;;;;;;29.61;22.41;102022.03;6115407;23;7173;-76
2022/03/26 11:25:21;;;;;;;;;;;;;;;29.59;22.21;102018.53;6112974;23;6882;-76
2022/03/26 11:28:34;;;;;;;;;;;;;;;29.91;21.68;102020.06;6112736;23;7048;-76
2022/03/26 11:31:31;;;;;;;;;;;;;;;30.13;20.79;102010.25;6114222;23;7127;-76
2022/03/26 11:34:05;;;;;;;;;;;;;;;30.26;21.13;102018.94;6114595;23;6786;-76
2022/03/26 11:36:32;;;;;;;;;;;;;;;30.21;20.86;102021.63;6114125;23;6782;-76
2022/03/26 11:39:19;;;;;;;;;;;;;;;30.09;20.52;102012.91;6113209;23;6791;-76
2022/03/26 11:41:45;;;;;;;;;;;;;;;29.94;20.50;102010.34;6113378;23;7288;-76
2022/03/26 11:44:16;;;;;;;;;;;;;;;30.03;20.18;101998.81;6114275;23;6798;-76
2022/03/26 11:52:31;;;;;;;;;;;;;;;30.01;20.41;102005.03;6113114;23;6862;-77
2022/03/26 11:55:12;;;;;;;;;;;;;;;29.92;19.83;102006.84;6088884;23;6948;-77
2022/03/26 11:57:38;;;;;;;;;;;;;;;29.99;21.04;101991.81;6114971;23;6778;-76
2022/03/26 12:00:24;;;;;;;;;;;;;;;30.30;20.83;101990.72;6114001;23;7052;-76
2022/03/26 12:02:53;;;;;;;;;;;;;;;30.64;20.68;101990.34;6112343;23;7809;-76
2022/03/26 12:08:16;;;;;;;;;;;;;;;31.23;20.45;101989.66;6113415;23;6990;-76
2022/03/26 12:10:43;;;;;;;;;;;;;;;31.35;20.45;101979.81;6113626;23;6787;-76
2022/03/26 12:13:09;;;;;;;;;;;;;;;31.41;19.82;101982.38;6113455;23;7064;-76
2022/03/26 12:15:36;;;;;;;;;;;;;;;31.53;19.71;101976.91;6114033;23;7031;-76
2022/03/26 12:18:13;;;;;;;;;;;;;;;31.58;19.79;101983.00;6089871;23;7101;-76
2022/03/26 12:20:48;;;;;;;;;;;;;;;31.71;19.59;101975.72;6088870;23;6783;-76
2022/03/26 12:23:19;;;;;;;;;;;;;;;31.63;19.61;101982.03;6111298;23;6798;-76
2022/03/26 12:25:50;;;;;;;;;;;;;;;31.42;20.04;101978.81;6139599;23;7071;-77
2022/03/26 12:28:36;;;;;;;;;;;;;;;31.27;20.02;101969.31;6115872;23;6782;-77
2022/03/26 12:31:10;;;;;;;;;;;;;;;31.10;19.47;101972.19;6115300;23;7005;-77
2022/03/26 12:33:43;;;;;;;;;;;;;;;30.80;19.61;101961.97;6115408;23;7381;-76
2022/03/26 12:36:09;;;;;;;;;;;;;;;30.20;20.41;101968.75;6114719;23;6859;-76
2022/03/26 12:38:35;;;;;;;;;;;;;;;29.30;20.33;101964.97;6114601;23;7046;-74
2022/03/26 12:41:07;;;;;;;;;;;;;;;28.18;21.19;101977.59;6114384;23;7124;-74
2022/03/26 12:43:34;;;;;;;;;;;;;;;27.17;22.14;101973.03;6115534;23;6807;-75
2022/03/26 12:46:07;;;;;;;;;;;;;;;26.41;22.71;101975.22;6116130;23;6928;-76
2022/03/26 12:48:33;;;;;;;;;;;;;;;25.83;23.59;101969.50;6116203;23;6799;-75
2022/03/26 12:51:06;;;;;;;;;;;;;;;25.37;23.96;101959.38;6114924;23;7142;-75
2022/03/26 12:53:40;;;;;;;;;;;;;;;25.01;24.59;101964.19;6113875;23;6779;-75
2022/03/26 12:56:12;;;;;;;;;;;;;;;24.69;24.41;101954.13;6115605;23;6782;-75
2022/03/26 12:58:57;;;;;;;;;;;;;;;24.40;24.83;101965.06;6090949;23;6775;-75
2022/03/26 13:01:23;;;;;;;;;;;;;;;24.17;25.12;101965.59;6112910;23;6794;-76
2022/03/26 13:03:51;;;;;;;;;;;;;;;24.08;25.70;101957.59;6115441;23;7110;-76
2022/03/26 13:06:20;;;;;;;;;;;;;;;24.08;26.04;101949.75;6115075;23;6775;-76